createdAt,value
2018-05-13T00:01:08.439Z,5.43
2018-05-13T00:03:36.482Z,4.80
2018-05-13T00:06:04.519Z,5.40
2018-05-13T00:08:32.587Z,5.00
2018-05-13T00:11:00.628Z,4.73
2018-05-13T00:13:28.678Z,5.60
2018-05-13T00:15:56.754Z,5.93
2018-05-13T00:18:24.813Z,5.30
2018-05-13T00:20:53.618Z,5.43
2018-05-13T00:23:22.433Z,5.17
2018-05-13T00:25:50.487Z,5.10
2018-05-13T00:28:18.569Z,5.70
2018-05-13T00:30:46.566Z,4.50
2018-05-13T00:33:15.374Z,4.90
2018-05-13T00:35:44.179Z,4.87
2018-05-13T00:38:12.997Z,4.97
2018-05-13T00:40:41.026Z,4.73
2018-05-13T00:43:09.080Z,4.70
2018-05-13T00:45:37.114Z,4.40
2018-05-13T00:48:05.163Z,4.70
2018-05-13T00:50:33.249Z,4.90
2018-05-13T00:53:02.017Z,4.93
2018-05-13T00:55:30.066Z,4.77
2018-05-13T00:57:58.110Z,4.80
2018-05-13T01:00:26.172Z,4.47
2018-05-13T01:02:54.207Z,4.40
2018-05-13T01:05:22.247Z,4.53
2018-05-13T01:07:50.290Z,4.27
2018-05-13T01:10:19.104Z,4.00
2018-05-13T01:12:47.902Z,4.07
2018-05-13T01:15:15.950Z,4.50
2018-05-13T01:17:44.067Z,4.53
2018-05-13T01:20:12.184Z,4.77
2018-05-13T01:22:40.232Z,4.43
2018-05-13T01:25:08.279Z,4.77
2018-05-13T01:27:36.320Z,4.43
2018-05-13T01:30:05.134Z,4.30
2018-05-13T01:32:33.182Z,4.50
2018-05-13T01:35:01.231Z,4.53
2018-05-13T01:37:29.271Z,4.80
2018-05-13T01:39:58.089Z,4.50
2018-05-13T01:42:26.131Z,4.77
2018-05-13T01:44:54.183Z,5.10
2018-05-13T01:47:22.226Z,4.50
2018-05-13T01:49:51.034Z,4.60
2018-05-13T01:52:19.839Z,4.43
2018-05-13T01:54:47.930Z,4.47
2018-05-13T01:57:15.966Z,4.57
2018-05-13T01:59:44.019Z,4.50
2018-05-13T02:02:12.058Z,4.37
2018-05-13T02:04:40.875Z,4.30
2018-05-13T02:07:09.679Z,4.27
2018-05-13T02:09:37.724Z,4.33
2018-05-13T02:12:05.773Z,4.13
2018-05-13T02:14:33.805Z,4.07
2018-05-13T02:17:01.843Z,3.87
2018-05-13T02:19:29.891Z,4.80
2018-05-13T02:21:58.691Z,5.23
2018-05-13T02:24:27.495Z,5.00
2018-05-13T02:26:56.294Z,4.93
2018-05-13T02:29:25.126Z,4.77
2018-05-13T02:31:53.159Z,7.10
2018-05-13T02:34:21.199Z,8.10
2018-05-13T02:36:49.247Z,9.57
2018-05-13T02:39:18.056Z,10.13
2018-05-13T02:41:46.867Z,9.60
2018-05-13T02:44:15.683Z,10.10
2018-05-13T02:46:43.771Z,10.17
2018-05-13T02:49:12.557Z,9.67
2018-05-13T02:51:40.613Z,8.60
2018-05-13T02:54:08.655Z,8.13
2018-05-13T02:56:36.731Z,7.83
2018-05-13T02:59:04.756Z,7.67
2018-05-13T03:01:32.815Z,7.20
2018-05-13T03:04:00.935Z,7.50
2018-05-13T03:06:28.987Z,6.30
2018-05-13T03:08:57.028Z,6.80
2018-05-13T03:11:25.844Z,6.73
2018-05-13T03:13:53.887Z,6.57
2018-05-13T03:16:21.933Z,6.60
2018-05-13T03:18:49.973Z,6.13
2018-05-13T03:21:18.786Z,5.87
2018-05-13T03:23:47.595Z,5.50
2018-05-13T03:26:15.637Z,5.10
2018-05-13T03:28:43.772Z,5.97
2018-05-13T03:31:11.824Z,6.10
2018-05-13T03:33:39.874Z,4.80
2018-05-13T03:36:07.922Z,4.90
2018-05-13T03:38:35.962Z,5.60
2018-05-13T03:41:04.010Z,4.87
2018-05-13T03:43:32.087Z,5.33
2018-05-13T03:46:00.133Z,4.83
2018-05-13T03:48:28.171Z,4.87
2018-05-13T03:50:56.230Z,4.93
2018-05-13T03:53:24.269Z,4.50
2018-05-13T03:55:52.310Z,5.10
2018-05-13T03:58:20.347Z,5.17
2018-05-13T04:00:49.166Z,4.83
2018-05-13T04:03:17.963Z,5.30
2018-05-13T04:05:46.789Z,4.80
2018-05-13T04:08:50.164Z,5.00
2018-05-13T04:11:35.658Z,4.80
2018-05-13T04:14:21.202Z,4.70
2018-05-13T04:16:49.254Z,4.83
2018-05-13T04:19:18.073Z,4.87
2018-05-13T04:21:46.880Z,5.87
2018-05-13T04:24:14.912Z,5.70
2018-05-13T04:26:42.979Z,5.53
2018-05-13T04:29:11.014Z,6.17
2018-05-13T04:31:39.842Z,6.07
2018-05-13T04:34:07.875Z,5.90
2018-05-13T04:36:35.923Z,6.27
2018-05-13T04:39:03.977Z,5.33
2018-05-13T04:41:32.951Z,5.83
2018-05-13T04:44:00.983Z,6.03
2018-05-13T04:46:29.022Z,6.40
2018-05-13T04:48:57.061Z,6.03
2018-05-13T04:51:25.102Z,6.27
2018-05-13T04:53:53.915Z,6.17
2018-05-13T04:56:22.735Z,6.07
2018-05-13T04:58:50.780Z,5.80
2018-05-13T05:01:18.892Z,6.40
2018-05-13T05:03:46.870Z,5.77
2018-05-13T05:06:15.675Z,5.57
2018-05-13T05:08:44.495Z,6.10
2018-05-13T05:11:12.540Z,6.13
2018-05-13T05:13:40.591Z,6.20
2018-05-13T05:16:08.657Z,6.23
2018-05-13T05:18:36.734Z,6.40
2018-05-13T05:21:04.762Z,5.67
2018-05-13T05:23:32.809Z,6.17
2018-05-13T05:26:00.843Z,6.03
2018-05-13T05:28:28.887Z,5.70
2018-05-13T05:30:56.918Z,6.00
2018-05-13T05:33:24.963Z,6.07
2018-05-13T05:35:53.095Z,6.77
2018-05-13T05:38:21.806Z,6.10
2018-05-13T05:40:50.614Z,6.40
2018-05-13T05:43:19.430Z,5.97
2018-05-13T05:45:47.463Z,6.30
2018-05-13T05:48:15.601Z,6.20
2018-05-13T05:50:43.559Z,6.07
2018-05-13T05:53:12.387Z,6.20
2018-05-13T05:55:40.427Z,6.07
2018-05-13T05:58:08.473Z,6.27
2018-05-13T06:00:36.515Z,6.17
2018-05-13T06:03:05.323Z,5.20
2018-05-13T06:05:34.271Z,5.00
2018-05-13T06:08:02.321Z,5.23
2018-05-13T06:10:30.365Z,5.07
2018-05-13T06:12:58.415Z,5.00
2018-05-13T06:15:26.450Z,5.20
2018-05-13T06:17:55.265Z,4.90
2018-05-13T06:20:24.070Z,5.80
2018-05-13T06:22:52.115Z,5.90
2018-05-13T06:25:20.194Z,6.80
2018-05-13T06:27:48.212Z,7.17
2018-05-13T06:30:17.019Z,7.50
2018-05-13T06:32:45.821Z,7.20
2018-05-13T06:35:14.634Z,6.73
2018-05-13T06:37:42.675Z,7.10
2018-05-13T06:40:10.722Z,6.37
2018-05-13T06:42:38.759Z,6.33
2018-05-13T06:45:06.814Z,7.27
2018-05-13T06:47:34.868Z,7.67
2018-05-13T06:50:02.920Z,8.10
2018-05-13T06:52:30.946Z,8.10
2018-05-13T06:54:58.992Z,8.13
2018-05-13T06:57:27.799Z,8.37
2018-05-13T06:59:56.679Z,8.90
2018-05-13T07:02:24.718Z,8.63
2018-05-13T07:04:52.762Z,8.20
2018-05-13T07:07:21.622Z,8.90
2018-05-13T07:09:49.667Z,8.60
2018-05-13T07:12:17.705Z,8.83
2018-05-13T07:14:45.762Z,8.87
2018-05-13T07:17:13.806Z,8.68
2018-05-13T07:19:42.621Z,8.55
2018-05-13T07:22:12.259Z,8.80
2018-05-13T07:24:40.306Z,8.20
2018-05-13T07:27:09.111Z,7.43
2018-05-13T07:29:37.936Z,8.48
2018-05-13T07:32:05.971Z,7.25
2018-05-13T07:34:34.023Z,7.45
2018-05-13T07:37:02.085Z,7.87
2018-05-13T07:39:30.130Z,8.15
2018-05-13T07:41:58.169Z,7.65
2018-05-13T07:44:26.227Z,7.47
2018-05-13T07:46:55.024Z,7.37
2018-05-13T07:49:23.844Z,7.75
2018-05-13T07:51:51.958Z,8.57
2018-05-13T07:54:20.003Z,8.02
2018-05-13T07:56:48.824Z,8.38
2018-05-13T07:59:16.861Z,7.30
2018-05-13T08:01:44.911Z,8.25
2018-05-13T08:04:12.954Z,7.47
2018-05-13T08:06:41.770Z,7.40
2018-05-13T08:09:09.805Z,8.32
2018-05-13T08:11:37.855Z,7.15
2018-05-13T08:14:05.959Z,7.95
2018-05-13T08:16:34.776Z,8.13
2018-05-13T08:19:02.815Z,9.07
2018-05-13T08:21:30.867Z,8.32
2018-05-13T08:23:58.946Z,8.63
2018-05-13T08:26:26.998Z,7.95
2018-05-13T08:28:55.043Z,7.70
2018-05-13T08:31:23.856Z,6.62
2018-05-13T08:33:51.891Z,6.43
2018-05-13T08:36:19.940Z,6.30
2018-05-13T08:38:47.977Z,6.93
2018-05-13T08:41:16.035Z,7.30
2018-05-13T08:43:44.081Z,7.63
2018-05-13T08:46:12.173Z,7.40
2018-05-13T08:48:40.288Z,7.90
2018-05-13T08:51:08.310Z,22.77
2018-05-13T08:53:37.189Z,7.77
2018-05-13T08:56:05.236Z,7.60
2018-05-13T08:58:33.283Z,7.90
2018-05-13T09:01:02.095Z,7.20
2018-05-13T09:03:30.201Z,7.87
2018-05-13T09:05:58.251Z,7.70
2018-05-13T09:08:27.111Z,7.60
2018-05-13T09:10:55.872Z,7.87
2018-05-13T09:13:23.914Z,9.43
2018-05-13T09:15:51.963Z,8.27
2018-05-13T09:18:20.088Z,7.75
2018-05-13T09:20:48.267Z,9.30
2018-05-13T09:23:16.283Z,10.48
2018-05-13T09:25:45.098Z,10.13
2018-05-13T09:28:13.138Z,9.98
2018-05-13T09:30:41.230Z,9.60
2018-05-13T09:33:09.310Z,9.95
2018-05-13T09:35:38.150Z,9.98
2018-05-13T09:38:06.962Z,10.68
2018-05-13T09:40:35.032Z,10.40
2018-05-13T09:43:03.834Z,9.40
2018-05-13T09:45:32.647Z,9.38
2018-05-13T09:48:00.768Z,8.90
2018-05-13T09:50:28.738Z,9.60
2018-05-13T09:52:56.827Z,9.95
2018-05-13T09:55:24.942Z,8.18
2018-05-13T09:57:52.998Z,8.80
2018-05-13T10:00:21.126Z,9.60
2018-05-13T10:02:49.954Z,8.65
2018-05-13T10:05:18.754Z,8.48
2018-05-13T10:07:48.620Z,8.52
2018-05-13T10:10:17.489Z,7.90
2018-05-13T10:12:46.432Z,7.85
2018-05-13T10:15:15.151Z,6.80
2018-05-13T10:17:44.012Z,6.60
2018-05-13T10:20:12.051Z,6.62
2018-05-13T10:22:40.489Z,6.70
2018-05-13T10:25:08.685Z,7.57
2018-05-13T10:27:36.855Z,7.55
2018-05-13T10:30:04.891Z,7.40
2018-05-13T10:32:32.939Z,6.87
2018-05-13T10:35:00.989Z,6.65
2018-05-13T10:37:29.928Z,6.15
2018-05-13T10:39:57.967Z,6.03
2018-05-13T10:42:26.064Z,7.35
2018-05-13T10:44:54.062Z,7.45
2018-05-13T10:47:22.875Z,6.55
2018-05-13T10:49:50.918Z,7.57
2018-05-13T10:52:18.975Z,6.87
2018-05-13T10:54:47.012Z,7.70
2018-05-13T10:57:15.907Z,7.45
2018-05-13T10:59:44.724Z,6.75
2018-05-13T11:02:13.526Z,7.78
2018-05-13T11:04:41.604Z,8.10
2018-05-13T11:07:09.614Z,8.27
2018-05-13T11:09:37.669Z,8.18
2018-05-13T11:12:06.470Z,7.30
2018-05-13T11:14:35.275Z,6.40
2018-05-13T11:17:04.092Z,6.97
2018-05-13T11:19:32.130Z,6.90
2018-05-13T11:22:00.184Z,6.53
2018-05-13T11:24:28.226Z,6.55
2018-05-13T11:26:57.132Z,7.20
2018-05-13T11:29:25.928Z,6.87
2018-05-13T11:31:53.977Z,7.00
2018-05-13T11:34:22.020Z,7.20
2018-05-13T11:36:50.060Z,7.55
2018-05-13T11:39:18.116Z,7.47
2018-05-13T11:41:46.151Z,7.32
2018-05-13T11:44:14.962Z,6.85
2018-05-13T11:46:43.792Z,7.60
2018-05-13T11:49:11.823Z,6.95
2018-05-13T11:51:39.935Z,7.07
2018-05-13T11:54:07.986Z,8.13
2018-05-13T11:56:36.111Z,7.53
2018-05-13T11:59:04.158Z,7.45
2018-05-13T12:01:32.217Z,9.20
2018-05-13T12:04:00.255Z,8.48
2018-05-13T12:06:29.063Z,7.62
2018-05-13T12:08:57.880Z,7.80
2018-05-13T12:11:25.918Z,7.75
2018-05-13T12:13:53.966Z,7.32
2018-05-13T12:16:22.003Z,8.13
2018-05-13T12:18:50.820Z,7.80
2018-05-13T12:21:19.628Z,7.72
2018-05-13T12:23:47.670Z,7.43
2018-05-13T12:26:15.714Z,8.70
2018-05-13T12:28:43.764Z,8.00
2018-05-13T12:31:12.572Z,7.47
2018-05-13T12:33:41.834Z,7.87
2018-05-13T12:36:09.868Z,7.25
2018-05-13T12:38:38.687Z,7.00
2018-05-13T12:41:06.728Z,8.00
2018-05-13T12:43:34.778Z,7.80
2018-05-13T12:46:02.807Z,7.72
2018-05-13T12:48:31.625Z,7.12
2018-05-13T12:51:00.459Z,7.20
2018-05-13T12:53:28.507Z,6.35
2018-05-13T12:55:57.316Z,5.80
2018-05-13T12:58:26.209Z,5.57
2018-05-13T13:00:54.174Z,5.55
2018-05-13T13:03:22.223Z,5.80
2018-05-13T13:05:50.257Z,5.40
2018-05-13T13:08:19.097Z,5.80
2018-05-13T13:10:47.164Z,5.80
2018-05-13T13:13:15.208Z,5.60
2018-05-13T13:15:43.250Z,5.30
2018-05-13T13:18:11.301Z,5.28
2018-05-13T13:20:40.119Z,6.62
2018-05-13T13:23:08.159Z,6.32
2018-05-13T13:25:36.211Z,6.47
2018-05-13T13:28:04.247Z,6.22
2018-05-13T13:30:33.185Z,5.28
2018-05-13T13:33:01.127Z,5.22
2018-05-13T13:35:29.178Z,5.15
2018-05-13T13:37:57.211Z,4.82
2018-05-13T13:40:26.032Z,4.43
2018-05-13T13:42:54.075Z,4.60
2018-05-13T13:45:22.120Z,4.73
2018-05-13T13:47:50.158Z,5.17
2018-05-13T13:50:18.983Z,4.30
2018-05-13T13:52:47.027Z,4.80
2018-05-13T13:55:15.070Z,4.45
2018-05-13T13:57:43.147Z,4.30
2018-05-13T14:00:11.216Z,4.13
2018-05-13T14:02:40.066Z,4.17
2018-05-13T14:05:08.122Z,4.03
2018-05-13T14:07:36.174Z,4.00
2018-05-13T14:10:05.004Z,3.70
2018-05-13T14:12:33.047Z,3.53
2018-05-13T14:15:01.132Z,5.82
2018-05-13T14:17:29.254Z,5.50
2018-05-13T14:19:57.367Z,3.20
2018-05-13T14:22:25.383Z,2.90
2018-05-13T14:24:54.194Z,3.03
2018-05-13T14:27:22.246Z,2.92
2018-05-13T14:29:50.304Z,2.70
2018-05-13T14:32:18.364Z,2.42
2018-05-13T14:34:47.170Z,2.78
2018-05-13T14:37:15.979Z,2.37
2018-05-13T14:39:44.137Z,2.70
2018-05-13T14:42:12.186Z,2.97
2018-05-13T14:44:40.239Z,2.25
2018-05-13T14:47:08.284Z,2.35
2018-05-13T14:49:36.404Z,2.08
2018-05-13T14:52:04.450Z,2.15
2018-05-13T14:54:34.007Z,2.33
2018-05-13T14:57:02.059Z,2.10
2018-05-13T14:59:30.115Z,2.20
2018-05-13T15:01:58.175Z,2.10
2018-05-13T15:04:26.206Z,2.10
2018-05-13T15:06:54.253Z,2.00
2018-05-13T15:09:22.293Z,2.28
2018-05-13T15:11:51.112Z,2.13
2018-05-13T15:14:19.938Z,2.87
2018-05-13T15:16:47.987Z,7.27
2018-05-13T15:19:16.796Z,7.43
2018-05-13T15:21:45.606Z,7.83
2018-05-13T15:24:13.650Z,7.53
2018-05-13T15:26:41.703Z,8.37
2018-05-13T15:29:09.738Z,8.10
2018-05-13T15:31:38.555Z,9.50
2018-05-13T15:34:07.364Z,8.87
2018-05-13T15:36:35.457Z,9.00
2018-05-13T15:39:03.499Z,9.03
2018-05-13T15:41:31.551Z,9.10
2018-05-13T15:43:59.603Z,9.40
2018-05-13T15:46:27.662Z,9.60
2018-05-13T15:48:56.569Z,9.20
2018-05-13T15:51:24.652Z,9.27
2018-05-13T15:53:52.727Z,9.43
2018-05-13T15:56:20.788Z,9.13
2018-05-13T15:58:48.831Z,8.90
2018-05-13T16:01:16.892Z,9.20
2018-05-13T16:03:44.954Z,9.47
2018-05-13T16:06:13.019Z,9.60
2018-05-13T16:08:41.056Z,9.17
2018-05-13T16:11:09.871Z,9.53
2018-05-13T16:13:37.935Z,9.83
2018-05-13T16:16:06.796Z,9.83
2018-05-13T16:18:34.874Z,10.10
2018-05-13T16:21:02.920Z,10.10
2018-05-13T16:23:31.741Z,9.80
2018-05-13T16:25:59.779Z,8.17
2018-05-13T16:28:27.838Z,8.87
2018-05-13T16:30:55.888Z,9.23
2018-05-13T16:33:23.950Z,9.57
2018-05-13T16:35:51.985Z,8.40
2018-05-13T16:38:20.051Z,8.20
2018-05-13T16:40:48.104Z,8.00
2018-05-13T16:43:16.921Z,8.13
2018-05-13T16:45:45.106Z,7.90
2018-05-13T16:48:13.162Z,8.40
2018-05-13T16:50:41.240Z,7.57
2018-05-13T16:53:09.324Z,7.17
2018-05-13T16:55:37.356Z,7.87
2018-05-13T16:58:05.410Z,7.27
2018-05-13T17:00:34.233Z,7.53
2018-05-13T17:03:03.040Z,6.30
2018-05-13T17:05:31.089Z,5.97
2018-05-13T17:07:59.132Z,6.50
2018-05-13T17:10:27.179Z,5.63
2018-05-13T17:12:56.000Z,5.57
2018-05-13T17:15:24.043Z,5.73
2018-05-13T17:17:52.168Z,5.30
2018-05-13T17:20:20.247Z,5.30
2018-05-13T17:22:48.300Z,4.90
2018-05-13T17:25:17.102Z,4.90
2018-05-13T17:27:46.099Z,4.50
2018-05-13T17:30:14.138Z,4.70
2018-05-13T17:32:42.198Z,4.10
2018-05-13T17:35:11.023Z,4.30
2018-05-13T17:37:39.152Z,3.80
2018-05-13T17:40:07.179Z,4.27
2018-05-13T17:42:35.236Z,4.40
2018-05-13T17:45:03.281Z,4.00
2018-05-13T17:47:31.326Z,4.73
2018-05-13T17:50:00.177Z,4.87
2018-05-13T17:52:28.183Z,4.40
2018-05-13T17:54:56.235Z,4.40
2018-05-13T17:57:24.302Z,4.57
2018-05-13T17:59:53.087Z,5.07
2018-05-13T18:02:21.160Z,4.70
2018-05-13T18:04:49.201Z,5.40
2018-05-13T18:07:17.239Z,5.27
2018-05-13T18:09:45.307Z,5.33
2018-05-13T18:12:14.127Z,6.10
2018-05-13T18:14:42.179Z,7.30
2018-05-13T18:17:10.316Z,6.77
2018-05-13T18:19:38.359Z,6.97
2018-05-13T18:22:06.400Z,6.87
2018-05-13T18:24:34.540Z,6.70
2018-05-13T18:27:02.490Z,7.50
2018-05-13T18:29:32.047Z,7.47
2018-05-13T18:32:00.858Z,8.03
2018-05-13T18:34:28.907Z,7.97
2018-05-13T18:36:56.952Z,8.73
2018-05-13T18:39:25.004Z,9.33
2018-05-13T18:41:53.055Z,9.23
2018-05-13T18:44:21.099Z,9.77
2018-05-13T18:46:49.148Z,10.30
2018-05-13T18:49:17.968Z,10.47
2018-05-13T18:51:46.008Z,10.40
2018-05-13T18:54:14.067Z,10.10
2018-05-13T18:56:42.116Z,34.70
2018-05-13T18:59:10.221Z,15.13
2018-05-13T19:01:39.014Z,11.37
2018-05-13T19:04:07.075Z,10.90
2018-05-13T19:06:35.935Z,13.03
2018-05-13T19:09:03.950Z,12.83
2018-05-13T19:11:32.774Z,13.03
2018-05-13T19:14:01.579Z,13.57
2018-05-13T19:16:29.631Z,14.73
2018-05-13T19:18:57.726Z,15.67
2018-05-13T19:21:25.762Z,16.23
2018-05-13T19:23:53.812Z,16.37
2018-05-13T19:26:21.864Z,16.23
2018-05-13T19:28:49.923Z,17.47
2018-05-13T19:31:17.976Z,17.70
2018-05-13T19:33:46.060Z,18.07
2018-05-13T19:36:14.131Z,18.07
2018-05-13T19:38:42.957Z,18.53
2018-05-13T19:41:11.009Z,18.60
2018-05-13T19:43:39.828Z,18.37
2018-05-13T19:46:07.889Z,19.23
2018-05-13T19:48:36.787Z,18.57
2018-05-13T19:51:05.518Z,20.30
2018-05-13T19:53:33.567Z,19.57
2018-05-13T19:56:01.696Z,19.80
2018-05-13T19:58:29.746Z,20.20
2018-05-13T20:00:57.796Z,19.43
2018-05-13T20:03:26.072Z,20.37
2018-05-13T20:05:53.911Z,20.33
2018-05-13T20:08:22.747Z,20.70
2018-05-13T20:10:50.819Z,21.20
2018-05-13T20:13:18.891Z,21.00
2018-05-13T20:15:47.786Z,21.63
2018-05-13T20:18:16.620Z,21.37
2018-05-13T20:20:44.672Z,20.37
2018-05-13T20:23:25.525Z,21.50
2018-05-13T20:25:53.482Z,21.33
2018-05-13T20:28:21.516Z,22.07
2018-05-13T20:30:50.352Z,22.53
2018-05-13T20:33:18.468Z,21.83
2018-05-13T20:35:46.531Z,22.70
2018-05-13T20:38:14.574Z,24.63
2018-05-13T20:40:43.404Z,23.87
2018-05-13T20:43:11.464Z,22.77
2018-05-13T20:45:40.283Z,23.67
2018-05-13T20:48:08.381Z,23.80
2018-05-13T20:50:36.440Z,25.23
2018-05-13T20:53:05.243Z,25.10
2018-05-13T20:55:33.303Z,25.73
2018-05-13T20:58:02.114Z,24.87
2018-05-13T21:00:30.175Z,25.87
2018-05-13T21:02:58.227Z,25.13
2018-05-13T21:05:26.283Z,25.00
2018-05-13T21:07:55.100Z,26.67
2018-05-13T21:10:23.146Z,26.10
2018-05-13T21:12:51.204Z,27.20
2018-05-13T21:15:19.271Z,26.77
2018-05-13T21:17:47.329Z,27.33
2018-05-13T21:20:16.151Z,25.77
2018-05-13T21:22:44.236Z,26.70
2018-05-13T21:25:12.292Z,24.97
2018-05-13T21:27:41.111Z,25.23
2018-05-13T21:30:09.177Z,23.87
2018-05-13T21:32:37.214Z,23.00
2018-05-13T21:35:05.278Z,23.60
2018-05-13T21:37:33.335Z,23.50
2018-05-13T21:40:02.143Z,23.80
2018-05-13T21:42:30.968Z,25.37
2018-05-13T21:44:59.023Z,23.43
2018-05-13T21:47:27.844Z,23.37
2018-05-13T21:49:55.890Z,22.47
2018-05-13T21:52:24.002Z,24.10
2018-05-13T21:54:52.007Z,26.07
2018-05-13T21:57:20.076Z,28.90
2018-05-13T21:59:48.127Z,28.13
2018-05-13T22:02:16.191Z,26.77
2018-05-13T22:04:57.739Z,26.37
2018-05-13T22:07:26.559Z,23.50
2018-05-13T22:09:54.607Z,19.00
2018-05-13T22:12:22.660Z,20.17
2018-05-13T22:14:51.543Z,22.20
2018-05-13T22:17:19.627Z,20.57
2018-05-13T22:19:47.675Z,21.80
2018-05-13T22:22:16.491Z,12.67
2018-05-13T22:24:44.539Z,14.40
2018-05-13T22:27:12.600Z,14.37
2018-05-13T22:29:40.663Z,7.57
2018-05-13T22:32:08.723Z,8.00
2018-05-13T22:34:37.533Z,7.73
2018-05-13T22:37:05.587Z,6.83
2018-05-13T22:39:33.627Z,4.93
2018-05-13T22:42:01.679Z,5.07
2018-05-13T22:44:30.487Z,4.30
2018-05-13T22:46:58.541Z,3.10
2018-05-13T22:49:26.587Z,2.80
2018-05-13T22:51:54.634Z,2.47
2018-05-13T22:54:22.678Z,2.50
2018-05-13T22:56:50.731Z,2.37
2018-05-13T22:59:18.772Z,2.07
2018-05-13T23:01:47.595Z,2.33
2018-05-13T23:04:16.410Z,2.20
2018-05-13T23:06:44.457Z,2.00
2018-05-13T23:09:12.517Z,2.00
2018-05-13T23:11:40.548Z,1.83
2018-05-13T23:14:08.594Z,2.10
2018-05-13T23:16:36.648Z,2.13
2018-05-13T23:19:04.688Z,1.80
2018-05-13T23:21:33.499Z,1.90
2018-05-13T23:24:02.315Z,2.10
2018-05-13T23:26:30.359Z,2.20
2018-05-13T23:28:58.411Z,2.03
2018-05-13T23:31:26.454Z,2.23
2018-05-13T23:33:55.372Z,2.03
2018-05-13T23:36:23.415Z,2.17
2018-05-13T23:38:51.467Z,2.20
2018-05-13T23:41:19.543Z,1.90
2018-05-13T23:43:48.327Z,2.50
2018-05-13T23:46:16.367Z,2.30
2018-05-13T23:48:44.414Z,2.63
2018-05-13T23:51:12.455Z,2.17
2018-05-13T23:53:40.507Z,2.10
2018-05-13T23:56:08.552Z,2.60
2018-05-13T23:58:36.622Z,2.53
